Time;durP1;ratioP1;P1;durP2;ratioP2;P2;SDS_P1;SDS_P2;PMS_P1;PMS_P2;Temp;Humidity;BMP_temperature;BMP_pressure;BME280_temperature;BME280_humidity;BME280_pressure;Samples;Min_cycle;Max_cycle;Signal;HPM_P1;HPM_P2
2022/01/04 00:00:31;;;;;;;;;;;;;;;4.59;100.00;99561.75;5091498;28;1037;-75
2022/01/04 00:02:57;;;;;;;;;;;;;;;4.59;100.00;99553.69;5089895;28;1910;-75
2022/01/04 00:05:25;;;;;;;;;;;;;;;4.62;100.00;99548.94;5090413;28;1057;-76
2022/01/04 00:07:52;;;;;;;;;;;;;;;4.65;100.00;99553.19;5091207;28;1303;-75
2022/01/04 00:10:21;;;;;;;;;;;;;;;4.67;100.00;99541.38;5089755;28;911;-75
2022/01/04 00:15:32;;;;;;;;;;;;;;;4.77;100.00;99527.22;5090690;28;942;-76
2022/01/04 00:17:58;;;;;;;;;;;;;;;4.75;100.00;99521.13;5090502;28;1321;-74
2022/01/04 00:20:26;;;;;;;;;;;;;;;4.75;100.00;99516.59;5089650;28;1146;-74
2022/01/04 00:22:52;;;;;;;;;;;;;;;4.75;100.00;99519.28;5090693;28;1925;-74
2022/01/04 00:25:18;;;;;;;;;;;;;;;4.71;100.00;99517.81;5090862;28;993;-75
2022/01/04 00:27:45;;;;;;;;;;;;;;;4.75;100.00;99516.59;5089241;28;840;-75
2022/01/04 00:30:12;;;;;;;;;;;;;;;4.72;100.00;99514.16;5090663;28;1410;-75
2022/01/04 00:32:38;;;;;;;;;;;;;;;4.82;100.00;99517.84;5090717;28;954;-75
2022/01/04 00:35:05;;;;;;;;;;;;;;;4.90;100.00;99513.72;5090279;28;978;-75
2022/01/04 00:37:32;;;;;;;;;;;;;;;4.95;100.00;99504.31;5090841;28;943;-75
2022/01/04 00:39:59;;;;;;;;;;;;;;;4.97;100.00;99506.88;5090953;28;1340;-76
2022/01/04 00:42:25;;;;;;;;;;;;;;;5.00;100.00;99510.19;5089592;28;1930;-75
2022/01/04 00:44:51;;;;;;;;;;;;;;;5.02;100.00;99508.25;5090564;28;990;-75
2022/01/04 00:47:20;;;;;;;;;;;;;;;5.03;100.00;99501.88;5090287;28;982;-75
2022/01/04 00:49:45;;;;;;;;;;;;;;;4.97;100.00;99499.69;5090599;28;1298;-75
2022/01/04 00:52:16;;;;;;;;;;;;;;;4.96;100.00;99497.13;5090249;28;903;-75
2022/01/04 00:54:45;;;;;;;;;;;;;;;4.99;100.00;99488.78;5092126;28;1002;-75
2022/01/04 00:57:11;;;;;;;;;;;;;;;5.05;100.00;99482.06;5094428;28;1092;-75
2022/01/04 00:59:38;;;;;;;;;;;;;;;5.08;100.00;99477.31;5094411;28;1349;-75
2022/01/04 01:02:04;;;;;;;;;;;;;;;5.11;100.00;99474.38;5093187;28;1981;-75
2022/01/04 01:04:30;;;;;;;;;;;;;;;5.12;100.00;99477.94;5094526;28;784;-75
2022/01/04 01:06:57;;;;;;;;;;;;;;;5.13;100.00;99467.06;5094081;28;1002;-75
2022/01/04 01:09:27;;;;;;;;;;;;;;;5.11;100.00;99462.78;5093843;28;1450;-74
2022/01/04 01:11:55;;;;;;;;;;;;;;;5.09;100.00;99457.53;5094213;28;923;-75
2022/01/04 01:14:21;;;;;;;;;;;;;;;5.07;100.00;99456.78;5094351;28;1025;-74
2022/01/04 01:16:48;;;;;;;;;;;;;;;5.05;100.00;99460.56;5093845;28;826;-75
2022/01/04 01:19:14;;;;;;;;;;;;;;;5.02;100.00;99457.16;5093973;28;1373;-74
2022/01/04 01:21:40;;;;;;;;;;;;;;;4.99;100.00;99457.38;5093967;28;966;-75
2022/01/04 01:24:07;;;;;;;;;;;;;;;4.98;100.00;99449.41;5093843;28;1992;-74
2022/01/04 01:26:33;;;;;;;;;;;;;;;4.97;100.00;99443.19;5075304;28;1469;-74
2022/01/04 01:29:01;;;;;;;;;;;;;;;4.97;100.00;99442.31;5093428;28;1442;-75
2022/01/04 01:31:28;;;;;;;;;;;;;;;4.97;100.00;99442.31;5092672;28;792;-75
2022/01/04 01:33:54;;;;;;;;;;;;;;;5.00;100.00;99434.03;5092578;28;717;-75
2022/01/04 01:36:20;;;;;;;;;;;;;;;5.07;100.00;99442.47;5093610;28;832;-75
2022/01/04 01:38:47;;;;;;;;;;;;;;;5.11;100.00;99436.72;5093563;28;1278;-75
2022/01/04 01:41:13;;;;;;;;;;;;;;;5.18;100.00;99437.09;5092499;28;950;-76
2022/01/04 01:43:39;;;;;;;;;;;;;;;5.22;100.00;99424.25;5092381;28;1980;-74
2022/01/04 01:46:07;;;;;;;;;;;;;;;5.25;100.00;99427.56;5093106;28;985;-76
2022/01/04 01:48:33;;;;;;;;;;;;;;;5.25;100.00;99415.94;5093230;28;1306;-75
2022/01/04 01:50:59;;;;;;;;;;;;;;;5.22;100.00;99416.19;5092155;28;1084;-75
2022/01/04 01:53:26;;;;;;;;;;;;;;;5.21;100.00;99415.31;5093432;28;784;-76
2022/01/04 01:55:52;;;;;;;;;;;;;;;5.21;100.00;99412.63;5093099;28;973;-75
2022/01/04 01:58:18;;;;;;;;;;;;;;;5.22;100.00;99405.44;5093241;28;1298;-75
2022/01/04 02:00:45;;;;;;;;;;;;;;;5.24;100.00;99401.63;5092027;28;1115;-75
2022/01/04 02:03:12;;;;;;;;;;;;;;;5.25;100.00;99397.09;5093319;28;1977;-75
2022/01/04 02:05:39;;;;;;;;;;;;;;;5.26;100.00;99393.44;5092136;28;982;-73
2022/01/04 02:08:06;;;;;;;;;;;;;;;5.26;100.00;99385.38;5091416;28;1311;-75
2022/01/04 02:10:32;;;;;;;;;;;;;;;5.26;100.00;99393.44;5093347;28;990;-75
2022/01/04 02:12:58;;;;;;;;;;;;;;;5.20;100.00;99390.25;5091828;28;1150;-76
2022/01/04 02:15:25;;;;;;;;;;;;;;;5.19;100.00;99371.56;5091788;28;950;-74
2022/01/04 02:17:52;;;;;;;;;;;;;;;5.16;100.00;99378.03;5092631;28;1330;-74
2022/01/04 02:20:20;;;;;;;;;;;;;;;5.11;100.00;99380.22;5080262;22;3684;-71
2022/01/04 02:22:47;;;;;;;;;;;;;;;5.03;100.00;99380.00;5059492;28;1917;-72
2022/01/04 02:25:13;;;;;;;;;;;;;;;4.97;100.00;99365.22;5055079;28;851;-72
2022/01/04 02:27:41;;;;;;;;;;;;;;;4.93;100.00;99361.06;5052726;28;884;-70
2022/01/04 02:30:08;;;;;;;;;;;;;;;4.86;100.00;99360.69;5068042;28;1323;-69
2022/01/04 02:32:35;;;;;;;;;;;;;;;4.83;100.00;99357.38;5073143;28;822;-69
2022/01/04 02:35:01;;;;;;;;;;;;;;;4.77;100.00;99353.34;5073098;28;1041;-70
2022/01/04 02:37:30;;;;;;;;;;;;;;;4.79;100.00;99346.00;5073019;28;989;-68
2022/01/04 02:39:57;;;;;;;;;;;;;;;4.74;100.00;99355.41;5072964;28;1387;-70
2022/01/04 02:42:23;;;;;;;;;;;;;;;4.69;100.00;99347.72;5073168;28;899;-70
2022/01/04 02:44:49;;;;;;;;;;;;;;;4.63;100.00;99345.50;5072941;28;982;-71
2022/01/04 02:47:16;;;;;;;;;;;;;;;4.59;100.00;99335.97;5071843;28;891;-69
2022/01/04 02:49:43;;;;;;;;;;;;;;;4.52;100.00;99333.75;5072323;28;1301;-70
2022/01/04 02:52:09;;;;;;;;;;;;;;;4.47;100.00;99337.78;5072256;28;823;-68
2022/01/04 02:54:37;;;;;;;;;;;;;;;4.42;100.00;99335.44;5071551;28;997;-71
2022/01/04 02:57:03;;;;;;;;;;;;;;;4.39;100.00;99337.53;5073119;28;796;-70
2022/01/04 02:59:29;;;;;;;;;;;;;;;4.36;100.00;99341.31;5072028;28;1399;-70
2022/01/04 03:01:55;;;;;;;;;;;;;;;4.33;100.00;99336.19;5070906;28;1002;-70
2022/01/04 03:04:22;;;;;;;;;;;;;;;4.30;100.00;99328.34;5071849;28;1975;-71
2022/01/04 03:06:48;;;;;;;;;;;;;;;4.26;100.00;99319.69;5071695;28;793;-70
2022/01/04 03:09:15;;;;;;;;;;;;;;;4.23;100.00;99313.69;5071860;28;1328;-70
2022/01/04 03:11:43;;;;;;;;;;;;;;;4.21;100.00;99315.59;5071681;28;998;-69
2022/01/04 03:14:09;;;;;;;;;;;;;;;4.16;100.00;99321.34;5071883;28;817;-71
2022/01/04 03:16:35;;;;;;;;;;;;;;;4.12;100.00;99317.19;5070174;28;851;-71
2022/01/04 03:19:06;;;;;;;;;;;;;;;4.07;100.00;99312.16;5071663;28;1312;-72
2022/01/04 03:21:33;;;;;;;;;;;;;;;4.02;100.00;99308.97;5071525;28;843;-71
2022/01/04 03:23:59;;;;;;;;;;;;;;;3.98;100.00;99304.81;5071730;28;1979;-71
2022/01/04 03:26:26;;;;;;;;;;;;;;;3.93;100.00;99305.16;5071447;28;765;-71
2022/01/04 03:28:53;;;;;;;;;;;;;;;3.87;100.00;99302.94;5071517;28;1292;-72
2022/01/04 03:31:20;;;;;;;;;;;;;;;3.83;100.00;99294.25;5071542;28;713;-69
2022/01/04 03:33:46;;;;;;;;;;;;;;;3.80;100.00;99288.28;5071405;28;1447;-71
2022/01/04 03:36:14;;;;;;;;;;;;;;;3.78;100.00;99291.09;5069271;28;1464;-71
2022/01/04 03:38:41;;;;;;;;;;;;;;;3.75;100.00;99283.25;5071016;28;1312;-70
2022/01/04 03:41:08;;;;;;;;;;;;;;;3.76;100.00;99287.66;5071445;28;783;-72
2022/01/04 03:43:34;;;;;;;;;;;;;;;3.76;100.00;99274.22;5071245;28;1984;-71
2022/01/04 03:46:02;;;;;;;;;;;;;;;3.80;100.00;99280.22;5070993;28;1104;-69
2022/01/04 03:48:28;;;;;;;;;;;;;;;3.79;100.00;99275.81;5071253;28;1295;-69
2022/01/04 03:50:54;;;;;;;;;;;;;;;3.83;100.00;99269.25;5071144;28;873;-70
2022/01/04 03:53:20;;;;;;;;;;;;;;;3.83;100.00;99261.19;5071567;28;946;-71
2022/01/04 03:55:47;;;;;;;;;;;;;;;3.82;100.00;99254.97;5070836;28;871;-69
2022/01/04 03:58:13;;;;;;;;;;;;;;;3.79;100.00;99257.88;5071162;28;982;-71
2022/01/04 04:00:39;;;;;;;;;;;;;;;3.75;100.00;99251.03;5071001;28;1270;-71
2022/01/04 04:03:07;;;;;;;;;;;;;;;3.75;100.00;99253.72;5070877;28;1975;-71
2022/01/04 04:05:33;;;;;;;;;;;;;;;3.73;100.00;99258.38;5070906;28;1002;-71
2022/01/04 04:07:59;;;;;;;;;;;;;;;3.71;100.00;99244.19;5070252;28;1154;-71
2022/01/04 04:10:26;;;;;;;;;;;;;;;3.72;100.00;99250.44;5070899;28;1417;-71
2022/01/04 04:12:52;;;;;;;;;;;;;;;3.72;100.00;99240.53;5071229;28;903;-70
2022/01/04 04:15:18;;;;;;;;;;;;;;;3.73;100.00;99238.72;5070659;28;966;-70
2022/01/04 04:17:45;;;;;;;;;;;;;;;3.72;100.00;99234.34;5070490;28;751;-71
2022/01/04 04:20:13;;;;;;;;;;;;;;;3.67;100.00;99232.84;5070721;28;1374;-71
2022/01/04 04:22:39;;;;;;;;;;;;;;;3.65;100.00;99228.56;5069499;28;780;-69
2022/01/04 04:25:06;;;;;;;;;;;;;;;3.68;100.00;99228.34;5070537;28;1987;-69
2022/01/04 04:27:32;;;;;;;;;;;;;;;3.66;100.00;99225.78;5070734;28;709;-70
2022/01/04 04:29:58;;;;;;;;;;;;;;;3.62;100.00;99218.06;5070029;28;1391;-68
2022/01/04 04:32:25;;;;;;;;;;;;;;;3.56;100.00;99213.19;5070727;28;987;-71
2022/01/04 04:34:51;;;;;;;;;;;;;;;3.50;100.00;99212.66;5069991;28;947;-70
2022/01/04 04:37:19;;;;;;;;;;;;;;;3.45;100.00;99214.84;5061379;28;2632;-70
2022/01/04 04:39:45;;;;;;;;;;;;;;;3.39;100.00;99203.72;5070095;28;1388;-70
2022/01/04 04:42:11;;;;;;;;;;;;;;;3.32;100.00;99206.84;5070375;28;1189;-71
2022/01/04 04:44:38;;;;;;;;;;;;;;;3.28;100.00;99210.75;5070417;28;1918;-71
2022/01/04 04:47:05;;;;;;;;;;;;;;;3.23;100.00;99201.34;5070490;28;842;-69
2022/01/04 04:49:31;;;;;;;;;;;;;;;3.17;100.00;99206.19;5070498;28;1338;-70
2022/01/04 04:51:59;;;;;;;;;;;;;;;3.09;100.00;99208.59;5070387;28;915;-70
2022/01/04 04:54:26;;;;;;;;;;;;;;;3.06;100.00;99203.47;5070432;28;903;-68
2022/01/04 04:56:53;;;;;;;;;;;;;;;3.01;100.00;99197.59;5069933;28;805;-71
2022/01/04 04:59:19;;;;;;;;;;;;;;;3.02;100.00;99196.63;5070621;28;1387;-71
2022/01/04 05:01:45;;;;;;;;;;;;;;;3.03;100.00;99195.63;5072573;28;859;-70
2022/01/04 05:04:11;;;;;;;;;;;;;;;3.02;100.00;99185.91;5070103;28;1914;-71
2022/01/04 05:06:38;;;;;;;;;;;;;;;3.03;100.00;99194.78;5069975;28;737;-71
2022/01/04 05:09:04;;;;;;;;;;;;;;;2.99;100.00;99181.63;5070164;28;1317;-71
2022/01/04 05:11:32;;;;;;;;;;;;;;;2.97;100.00;99171.97;5070108;28;966;-71
2022/01/04 05:13:59;;;;;;;;;;;;;;;2.94;100.00;99174.84;5070116;28;970;-71
2022/01/04 05:16:25;;;;;;;;;;;;;;;2.89;100.00;99171.69;5068588;28;1344;-71
2022/01/04 05:18:51;;;;;;;;;;;;;;;2.87;100.00;99166.41;5070098;28;1301;-70
2022/01/04 05:21:17;;;;;;;;;;;;;;;2.86;100.00;99159.38;5068968;28;796;-71
2022/01/04 05:23:44;;;;;;;;;;;;;;;2.85;100.00;99157.66;5070031;28;1914;-69
2022/01/04 05:26:10;;;;;;;;;;;;;;;2.86;100.00;99162.06;5069574;28;1513;-69
2022/01/04 05:28:38;;;;;;;;;;;;;;;2.85;100.00;99149.59;5068450;28;1502;-68
2022/01/04 05:31:05;;;;;;;;;;;;;;;2.83;100.00;99140.81;5068755;28;1065;-69
2022/01/04 05:33:31;;;;;;;;;;;;;;;2.83;100.00;99135.44;5070410;28;1037;-70
2022/01/04 05:35:57;;;;;;;;;;;;;;;2.80;100.00;99136.53;5070319;28;990;-69
2022/01/04 05:38:23;;;;;;;;;;;;;;;2.76;100.00;99137.72;5070782;28;1314;-70
2022/01/04 05:40:50;;;;;;;;;;;;;;;2.75;100.00;99122.63;5070586;28;1471;-69
2022/01/04 05:43:16;;;;;;;;;;;;;;;2.74;100.00;99120.94;5073975;28;1366;-70
2022/01/04 05:45:43;;;;;;;;;;;;;;;2.70;100.00;99118.56;5077235;28;1918;-70
2022/01/04 05:48:10;;;;;;;;;;;;;;;2.72;100.00;99119.34;5093925;28;1541;-70
2022/01/04 05:50:38;;;;;;;;;;;;;;;2.72;100.00;99114.81;5075353;28;1586;-70
2022/01/04 05:53:04;;;;;;;;;;;;;;;2.77;100.00;99115.34;5078973;28;1491;-68
2022/01/04 05:55:30;;;;;;;;;;;;;;;2.81;100.00;99108.78;5094243;28;1005;-68
2022/01/04 05:57:57;;;;;;;;;;;;;;;2.87;100.00;99111.97;5091711;28;1499;-68
2022/01/04 06:00:23;;;;;;;;;;;;;;;2.87;100.00;99110.13;5073348;28;1333;-71
2022/01/04 06:02:50;;;;;;;;;;;;;;;2.90;100.00;99101.00;5073511;28;844;-70
2022/01/04 06:05:17;;;;;;;;;;;;;;;2.94;100.00;99102.47;5073420;28;1993;-69
2022/01/04 06:07:43;;;;;;;;;;;;;;;2.94;100.00;99095.31;5074434;28;1527;-68
2022/01/04 06:10:11;;;;;;;;;;;;;;;2.91;100.00;99086.63;5073336;28;1386;-70
2022/01/04 06:15:21;;;;;;;;;;;;;;;2.90;100.00;99061.69;5073189;28;832;-68
2022/01/04 06:17:49;;;;;;;;;;;;;;;2.92;100.00;99058.88;5073786;28;1519;-69
2022/01/04 06:20:19;;;;;;;;;;;;;;;2.88;100.00;99058.25;5053706;28;1448;-69
2022/01/04 06:22:45;;;;;;;;;;;;;;;2.89;100.00;99054.59;5053104;28;1163;-68
2022/01/04 06:25:13;;;;;;;;;;;;;;;2.83;100.00;99066.66;5071184;28;1980;-68
2022/01/04 06:27:41;;;;;;;;;;;;;;;2.76;100.00;99060.03;5073155;28;910;-70
2022/01/04 06:30:08;;;;;;;;;;;;;;;2.70;100.00;99062.31;5074627;28;1399;-69
2022/01/04 06:32:35;;;;;;;;;;;;;;;2.64;100.00;99056.44;5092329;28;994;-72
2022/01/04 06:35:02;;;;;;;;;;;;;;;2.60;100.00;99059.47;5094086;28;1276;-69
2022/01/04 06:37:29;;;;;;;;;;;;;;;2.55;100.00;99049.09;5093520;28;982;-73
2022/01/04 06:39:56;;;;;;;;;;;;;;;2.55;100.00;99037.53;5091688;28;1523;-71
2022/01/04 06:42:22;;;;;;;;;;;;;;;2.57;100.00;99038.28;5073543;28;1022;-70
2022/01/04 06:44:48;;;;;;;;;;;;;;;2.60;100.00;99038.03;5072690;28;1914;-72
2022/01/04 06:47:14;;;;;;;;;;;;;;;2.68;100.00;99041.00;5070609;28;1467;-70
2022/01/04 06:49:41;;;;;;;;;;;;;;;2.77;100.00;99029.56;5054990;28;1416;-70
2022/01/04 06:52:08;;;;;;;;;;;;;;;2.85;100.00;99040.56;5070176;28;1081;-70
2022/01/04 06:54:35;;;;;;;;;;;;;;;2.92;100.00;99026.72;5073271;28;813;-70
2022/01/04 06:57:02;;;;;;;;;;;;;;;2.97;100.00;99024.53;5073644;28;1237;-71
2022/01/04 06:59:28;;;;;;;;;;;;;;;3.00;100.00;99032.34;5082457;28;1502;-71
2022/01/04 07:01:54;;;;;;;;;;;;;;;3.03;100.00;99029.41;5091497;28;854;-72
2022/01/04 07:04:21;;;;;;;;;;;;;;;3.08;100.00;99023.69;5093418;28;1973;-73
2022/01/04 07:06:47;;;;;;;;;;;;;;;3.10;100.00;99025.28;5092553;28;744;-69
2022/01/04 07:09:13;;;;;;;;;;;;;;;3.14;100.00;99025.88;5087963;28;1468;-70
2022/01/04 07:11:41;;;;;;;;;;;;;;;3.17;100.00;99020.31;5091622;28;1566;-72
2022/01/04 07:14:07;;;;;;;;;;;;;;;3.20;100.00;99019.22;5071600;28;721;-71
2022/01/04 07:16:33;;;;;;;;;;;;;;;3.23;100.00;99024.34;5072425;28;896;-72
2022/01/04 07:19:00;;;;;;;;;;;;;;;3.24;100.00;99021.53;5067907;28;1489;-72
2022/01/04 07:21:26;;;;;;;;;;;;;;;3.24;100.00;99018.00;5073793;28;1566;-72
2022/01/04 07:23:54;;;;;;;;;;;;;;;3.23;100.00;99018.97;5072349;28;1918;-72
2022/01/04 07:26:21;;;;;;;;;;;;;;;3.27;100.00;99025.81;5071152;28;766;-70
2022/01/04 07:28:49;;;;;;;;;;;;;;;3.30;100.00;99031.78;5072357;28;1394;-71
2022/01/04 07:31:16;;;;;;;;;;;;;;;3.39;100.00;99029.34;5052424;28;1031;-71
2022/01/04 07:33:42;;;;;;;;;;;;;;;3.46;100.00;99028.75;5062377;28;1567;-72
2022/01/04 07:36:09;;;;;;;;;;;;;;;3.51;100.00;99023.00;5072159;28;965;-72
2022/01/04 07:38:35;;;;;;;;;;;;;;;3.57;100.00;99027.91;5074394;28;1303;-72
2022/01/04 07:41:02;;;;;;;;;;;;;;;3.64;100.00;99001.44;5072800;28;1504;-72
2022/01/04 07:43:28;;;;;;;;;;;;;;;3.72;100.00;99006.19;5092074;28;855;-71
2022/01/04 07:45:56;;;;;;;;;;;;;;;3.75;100.00;99005.94;5088701;28;1918;-70
2022/01/04 07:48:22;;;;;;;;;;;;;;;3.84;100.00;99003.38;5071813;28;1480;-70
2022/01/04 07:50:49;;;;;;;;;;;;;;;3.90;100.00;99003.84;5073140;28;1509;-69
2022/01/04 07:53:15;;;;;;;;;;;;;;;3.93;100.00;99007.16;5069986;28;1119;-70
2022/01/04 07:55:42;;;;;;;;;;;;;;;3.98;100.00;99004.94;5070134;28;1293;-70
2022/01/04 07:58:08;;;;;;;;;;;;;;;4.04;100.00;98995.53;5070862;28;1230;-69
2022/01/04 08:00:34;;;;;;;;;;;;;;;4.08;100.00;98999.66;5067085;28;1370;-72
2022/01/04 08:03:03;;;;;;;;;;;;;;;4.14;100.00;98999.19;5052032;28;1138;-69
2022/01/04 08:05:29;;;;;;;;;;;;;;;4.20;100.00;98995.13;5089057;28;1917;-71
2022/01/04 08:07:55;;;;;;;;;;;;;;;4.24;100.00;98985.84;5088648;28;1523;-71
2022/01/04 08:10:22;;;;;;;;;;;;;;;4.31;100.00;98980.81;5079531;28;1586;-69
2022/01/04 08:12:48;;;;;;;;;;;;;;;4.36;100.00;98986.66;5072390;28;1476;-71
2022/01/04 08:15:14;;;;;;;;;;;;;;;4.41;100.00;98979.06;5070828;28;1338;-71
2022/01/04 08:17:40;;;;;;;;;;;;;;;4.45;100.00;98977.84;5068708;28;1170;-69
2022/01/04 08:20:09;;;;;;;;;;;;;;;4.52;100.00;98967.41;5085815;22;2152;-75
2022/01/04 08:22:35;;;;;;;;;;;;;;;4.58;100.00;98966.88;5071845;28;1144;-76
2022/01/04 08:25:04;;;;;;;;;;;;;;;4.62;100.00;98971.06;5059297;28;1910;-75
2022/01/04 08:27:30;;;;;;;;;;;;;;;4.67;100.00;98962.59;5069134;28;1473;-75
2022/01/04 08:29:56;;;;;;;;;;;;;;;4.69;100.00;98957.94;5050355;28;1330;-75
2022/01/04 08:32:23;;;;;;;;;;;;;;;4.74;100.00;98966.44;5062535;28;1600;-76
2022/01/04 08:34:49;;;;;;;;;;;;;;;4.78;100.00;98964.34;5070545;28;978;-75
2022/01/04 08:37:17;;;;;;;;;;;;;;;4.81;100.00;98975.72;5062875;28;1394;-75
2022/01/04 08:39:44;;;;;;;;;;;;;;;4.84;100.00;98964.69;5059227;28;1497;-76
2022/01/04 08:42:10;;;;;;;;;;;;;;;4.88;100.00;98959.91;5070458;28;1364;-75
2022/01/04 08:44:39;;;;;;;;;;;;;;;4.93;100.00;98962.19;5069599;28;1914;-76
2022/01/04 08:47:05;;;;;;;;;;;;;;;4.97;100.00;98958.25;5068723;28;1134;-76
2022/01/04 08:49:32;;;;;;;;;;;;;;;4.99;100.00;98962.50;5069988;28;1555;-75
2022/01/04 08:51:58;;;;;;;;;;;;;;;5.03;100.00;98952.34;5070999;28;1505;-76
2022/01/04 08:54:26;;;;;;;;;;;;;;;5.08;100.00;98947.44;5072245;28;1512;-77
2022/01/04 08:56:54;;;;;;;;;;;;;;;5.09;100.00;98949.13;5070279;28;907;-75
2022/01/04 08:59:20;;;;;;;;;;;;;;;5.15;100.00;98942.38;5070137;28;1579;-76
2022/01/04 09:01:46;;;;;;;;;;;;;;;5.18;100.00;98936.72;5072097;28;1293;-77
2022/01/04 09:04:13;;;;;;;;;;;;;;;5.22;100.00;98940.00;5070153;28;1233;-78
2022/01/04 09:06:39;;;;;;;;;;;;;;;5.26;100.00;98942.28;5069184;28;2119;-77
2022/01/04 09:09:05;;;;;;;;;;;;;;;5.29;100.00;98930.38;5056960;28;1022;-76
2022/01/04 09:11:34;;;;;;;;;;;;;;;5.33;100.00;98923.75;5050015;28;1376;-76
2022/01/04 09:14:19;;;;;;;;;;;;;;;5.39;100.00;98923.22;5058876;28;1306;-75
2022/01/04 09:19:30;;;;;;;;;;;;;;;5.45;100.00;98917.31;5073783;28;1010;-76
2022/01/04 09:21:56;;;;;;;;;;;;;;;5.50;100.00;98919.56;5071524;28;1404;-74
2022/01/04 09:24:23;;;;;;;;;;;;;;;5.52;100.00;98914.91;5072149;28;1561;-73
2022/01/04 09:26:50;;;;;;;;;;;;;;;5.57;100.00;98914.50;5072719;28;1984;-73
2022/01/04 09:29:18;;;;;;;;;;;;;;;5.59;100.00;98905.28;5072989;28;1235;-74
2022/01/04 09:31:46;;;;;;;;;;;;;;;5.63;100.00;98895.13;5073112;28;1386;-75
2022/01/04 09:34:12;;;;;;;;;;;;;;;5.69;100.00;98883.78;5073569;28;898;-77
2022/01/04 09:36:39;;;;;;;;;;;;;;;5.77;100.00;98896.56;5069831;28;925;-77
2022/01/04 09:39:07;;;;;;;;;;;;;;;5.80;100.00;98904.34;5073240;28;1365;-77
2022/01/04 09:41:33;;;;;;;;;;;;;;;5.82;100.00;98899.69;5070943;28;1525;-76
2022/01/04 09:44:02;;;;;;;;;;;;;;;5.83;100.00;98896.84;5053586;28;825;-74
2022/01/04 09:46:29;;;;;;;;;;;;;;;5.83;100.00;98883.38;5061607;28;1995;-76
2022/01/04 09:48:55;;;;;;;;;;;;;;;5.86;100.00;98866.09;5076493;28;1525;-76
2022/01/04 09:51:21;;;;;;;;;;;;;;;5.85;100.00;98859.00;5073407;28;1472;-76
2022/01/04 09:53:48;;;;;;;;;;;;;;;5.87;100.00;98865.13;5076188;28;1520;-76
2022/01/04 09:56:14;;;;;;;;;;;;;;;5.91;100.00;98865.69;5064130;28;886;-76
2022/01/04 09:58:41;;;;;;;;;;;;;;;5.91;100.00;98865.69;5066792;28;1370;-75
2022/01/04 10:01:17;;;;;;;;;;;;;;;5.91;100.00;98854.91;5072647;28;1313;-76
2022/01/04 10:03:43;;;;;;;;;;;;;;;5.93;100.00;98848.38;5071673;28;1022;-76
2022/01/04 10:06:14;;;;;;;;;;;;;;;5.93;100.00;98852.91;5057875;28;1985;-75
2022/01/04 10:08:49;;;;;;;;;;;;;;;5.94;100.00;98851.94;5066890;28;1485;-76
2022/01/04 10:11:15;;;;;;;;;;;;;;;5.96;100.00;98841.84;5070859;28;1474;-73
2022/01/04 10:13:41;;;;;;;;;;;;;;;5.96;100.00;98842.72;5071347;28;1014;-76
2022/01/04 10:16:16;;;;;;;;;;;;;;;6.00;100.00;98836.09;5071829;28;1481;-74
2022/01/04 10:18:46;;;;;;;;;;;;;;;6.02;100.00;98826.00;5072651;28;907;-75
2022/01/04 10:21:13;;;;;;;;;;;;;;;6.02;100.00;98815.25;5072840;28;1369;-77
2022/01/04 10:23:47;;;;;;;;;;;;;;;6.01;100.00;98799.22;5063490;28;1255;-75
2022/01/04 10:26:14;;;;;;;;;;;;;;;6.02;100.00;98809.84;5066922;28;1906;-77
2022/01/04 10:28:41;;;;;;;;;;;;;;;6.03;100.00;98797.25;5071514;28;1473;-76
2022/01/04 10:31:08;;;;;;;;;;;;;;;6.02;100.00;98792.84;5055144;28;1340;-77
2022/01/04 10:33:36;;;;;;;;;;;;;;;6.05;100.00;98795.25;5071270;28;1597;-76
2022/01/04 10:36:07;;;;;;;;;;;;;;;6.07;100.00;98784.34;5071227;28;1396;-77
2022/01/04 10:38:34;;;;;;;;;;;;;;;6.09;100.00;98785.03;5062597;28;2124;-76
2022/01/04 10:41:02;;;;;;;;;;;;;;;6.13;100.00;98775.69;5054827;28;2065;-77
2022/01/04 10:43:29;;;;;;;;;;;;;;;6.16;100.00;98781.63;5068202;28;1494;-77
2022/01/04 10:45:57;;;;;;;;;;;;;;;6.15;100.00;98779.09;5059039;28;1948;-77
2022/01/04 10:48:24;;;;;;;;;;;;;;;6.15;100.00;98782.63;5063841;28;1787;-74
2022/01/04 10:50:52;;;;;;;;;;;;;;;6.18;100.00;98785.03;5069997;28;1417;-75
2022/01/04 10:53:27;;;;;;;;;;;;;;;6.19;100.00;98778.66;5061648;28;1019;-76
2022/01/04 10:55:57;;;;;;;;;;;;;;;6.24;100.00;98780.06;5072395;28;994;-76
2022/01/04 10:58:25;;;;;;;;;;;;;;;6.20;100.00;98782.22;5072161;28;1453;-76
2022/01/04 11:00:53;;;;;;;;;;;;;;;6.20;100.00;98791.13;5072076;28;1726;-77
2022/01/04 11:03:24;;;;;;;;;;;;;;;6.17;100.00;98794.13;5076374;28;1214;-77
2022/01/04 11:05:56;;;;;;;;;;;;;;;6.18;100.00;98782.34;5075758;28;1954;-78
2022/01/04 11:08:23;;;;;;;;;;;;;;;6.16;100.00;98783.47;5087023;28;1331;-78
2022/01/04 11:10:50;;;;;;;;;;;;;;;6.14;100.00;98780.09;5091451;28;1746;-79
2022/01/04 11:13:16;;;;;;;;;;;;;;;6.09;100.00;98782.34;5080149;28;1516;-79
2022/01/04 11:15:43;;;;;;;;;;;;;;;6.09;100.00;98785.88;5079094;28;1476;-77
2022/01/04 11:18:09;;;;;;;;;;;;;;;6.05;100.00;98787.16;5075885;28;1291;-76
2022/01/04 11:20:39;;;;;;;;;;;;;;;6.06;100.00;98783.50;5076109;28;1545;-78
2022/01/04 11:23:07;;;;;;;;;;;;;;;6.05;100.00;98786.34;5078653;28;978;-76
2022/01/04 11:25:33;;;;;;;;;;;;;;;6.04;100.00;98785.50;5064944;28;1895;-78
2022/01/04 11:28:01;;;;;;;;;;;;;;;6.05;100.00;98783.63;5060525;28;896;-78
2022/01/04 11:30:32;;;;;;;;;;;;;;;6.04;100.00;98774.72;5065568;28;1565;-76
2022/01/04 11:33:03;;;;;;;;;;;;;;;6.00;100.00;98763.38;5053517;28;1478;-75
2022/01/04 11:35:30;;;;;;;;;;;;;;;6.01;100.00;98758.81;5071241;28;897;-75
2022/01/04 11:37:57;;;;;;;;;;;;;;;5.98;100.00;98754.56;5070420;28;1159;-74
2022/01/04 11:40:26;;;;;;;;;;;;;;;5.98;100.00;98748.34;5063107;28;1427;-74
2022/01/04 11:42:53;;;;;;;;;;;;;;;5.96;100.00;98739.50;5065744;28;1311;-74
2022/01/04 11:45:34;;;;;;;;;;;;;;;5.99;100.00;98741.97;5070277;28;1902;-74
2022/01/04 11:48:01;;;;;;;;;;;;;;;5.94;100.00;98730.75;5070697;28;943;-74
2022/01/04 11:50:35;;;;;;;;;;;;;;;5.95;100.00;98729.75;5058622;28;1555;-75
2022/01/04 11:53:06;;;;;;;;;;;;;;;5.94;100.00;98728.06;5069589;28;1509;-76
2022/01/04 11:55:37;;;;;;;;;;;;;;;5.94;100.00;98725.34;5061415;28;1509;-74
2022/01/04 11:58:04;;;;;;;;;;;;;;;5.96;100.00;98728.75;5065577;28;1609;-75
2022/01/04 12:00:32;;;;;;;;;;;;;;;5.97;100.00;98701.69;5075202;28;1516;-75
2022/01/04 12:03:03;;;;;;;;;;;;;;;5.97;100.00;98700.81;5056966;28;991;-75
2022/01/04 12:05:29;;;;;;;;;;;;;;;5.98;100.00;98695.31;5037622;28;1906;-77
2022/01/04 12:07:56;;;;;;;;;;;;;;;6.01;100.00;98692.34;5066538;28;1678;-75
2022/01/04 12:10:31;;;;;;;;;;;;;;;6.02;100.00;98668.94;5071939;28;1557;-75
2022/01/04 12:13:00;;;;;;;;;;;;;;;6.08;100.00;98657.59;5056015;28;1339;-76
2022/01/04 12:15:49;;;;;;;;;;;;;;;6.09;100.00;98651.19;5053223;28;1259;-76
2022/01/04 12:18:34;;;;;;;;;;;;;;;6.07;100.00;98637.03;5069301;28;1392;-75
2022/01/04 12:21:02;;;;;;;;;;;;;;;6.09;100.00;98620.72;5071888;28;1470;-75
2022/01/04 12:23:48;;;;;;;;;;;;;;;6.10;100.00;98638.59;5072229;28;938;-75
2022/01/04 12:26:25;;;;;;;;;;;;;;;6.06;100.00;98648.81;5073565;28;1962;-76
2022/01/04 12:29:10;;;;;;;;;;;;;;;6.01;100.00;98645.69;5074469;28;1653;-75
2022/01/04 12:31:45;;;;;;;;;;;;;;;6.05;100.00;98647.09;5077648;28;1407;-76
2022/01/04 12:34:25;;;;;;;;;;;;;;;6.02;100.00;98645.53;5081696;28;1033;-75
2022/01/04 12:36:52;;;;;;;;;;;;;;;6.03;100.00;98638.34;5055492;28;1250;-77
2022/01/04 12:39:19;;;;;;;;;;;;;;;6.00;100.00;98639.47;5072138;28;1231;-75
2022/01/04 12:41:46;;;;;;;;;;;;;;;5.96;100.00;98637.16;5077666;28;1484;-75
2022/01/04 12:44:14;;;;;;;;;;;;;;;5.98;100.00;98629.84;5070012;28;1620;-75
2022/01/04 12:46:42;;;;;;;;;;;;;;;5.97;100.00;98628.09;5068194;28;1950;-74
2022/01/04 12:49:10;;;;;;;;;;;;;;;5.98;100.00;98636.06;5064334;28;1432;-74
2022/01/04 12:51:37;;;;;;;;;;;;;;;5.99;100.00;98643.16;5073412;28;1572;-77
2022/01/04 12:54:04;;;;;;;;;;;;;;;5.96;100.00;98642.56;5073267;28;797;-75
2022/01/04 12:56:30;;;;;;;;;;;;;;;5.98;100.00;98640.63;5073928;28;1508;-76
2022/01/04 12:58:57;;;;;;;;;;;;;;;5.96;100.00;98626.41;5075420;28;1079;-76
2022/01/04 13:01:24;;;;;;;;;;;;;;;5.95;100.00;98630.94;5074524;28;1508;-76
2022/01/04 13:03:51;;;;;;;;;;;;;;;6.01;100.00;98629.53;5069255;28;1662;-76
2022/01/04 13:06:18;;;;;;;;;;;;;;;6.02;100.00;98621.31;5054165;28;1918;-75
2022/01/04 13:08:50;;;;;;;;;;;;;;;6.08;100.00;98616.31;5061363;28;1556;-76